Terminal Aerodrome Forecast
Issued by NWS Wilmington, NC

Home | Current Version | Previous Version | Text Only | Print | Product List | Glossary On
Versions: 1 2 3 4 5 6 7 8 9 10 11 12 13 14 15 16
000
FTUS42 KILM 290917 CCA
TAFLBT
TAF COR
KLBT 290917Z 2909/3006 09008KT 6SM -SHRA VCTS SCT007 SCT015
      BKN045CB
      TEMPO 2909/2913 VRB15KT 3SM SHRA SCT007 BKN015
     FM291300 18006KT P6SM BKN090
     FM291600 16006KT P6SM VCTS SCT030CB
     FM300000 16003KT P6SM FEW030=

USA.gov is the U.S. government's official web portal to all federal, state and local government web resources and services.